Time;durP1;ratioP1;P1;durP2;ratioP2;P2;SDS_P1;SDS_P2;PMS_P1;PMS_P2;Temp;Humidity;BMP_temperature;BMP_pressure;BME280_temperature;BME280_humidity;BME280_pressure;Samples;Min_cycle;Max_cycle;Signal;HPM_P1;HPM_P2
2023/03/06 00:00:29;;;;;;;9.60;5.20;;;;;;;-0.93;68.69;94816.89;106997;1274;23870;-64
2023/03/06 00:03:14;;;;;;;8.20;4.20;;;;;;;-0.87;68.97;94813.84;106651;1274;22514;-64
2023/03/06 00:05:43;;;;;;;6.50;4.00;;;;;;;-0.88;68.99;94817.63;106723;1274;22517;-64
2023/03/06 00:08:11;;;;;;;8.90;4.70;;;;;;;-0.85;68.58;94815.92;106780;1274;22584;-64
2023/03/06 00:10:40;;;;;;;9.60;4.40;;;;;;;-0.87;68.81;94821.60;106969;1274;22518;-64
2023/03/06 00:13:12;;;;;;;6.30;4.10;;;;;;;-0.89;68.97;94818.31;106809;1274;24331;-64
2023/03/06 00:15:41;;;;;;;9.20;4.50;;;;;;;-0.93;68.72;94819.98;107035;1274;24313;-64
2023/03/06 00:18:09;;;;;;;7.90;3.80;;;;;;;-0.93;69.01;94820.51;106763;1274;22649;-63
2023/03/06 00:20:42;;;;;;;7.50;4.00;;;;;;;-0.90;68.67;94821.40;106703;1274;22531;-63
2023/03/06 00:23:10;;;;;;;7.00;3.90;;;;;;;-0.95;68.46;94826.85;106753;1274;22515;-63
2023/03/06 00:25:43;;;;;;;6.20;3.30;;;;;;;-1.01;68.29;94822.12;106735;1274;25302;-64
2023/03/06 00:28:13;;;;;;;7.00;3.90;;;;;;;-1.11;68.07;94825.94;106776;1274;26688;-64
2023/03/06 00:30:42;;;;;;;10.30;4.20;;;;;;;-1.19;67.71;94827.40;107063;1275;25236;-63
2023/03/06 00:33:11;;;;;;;7.50;3.60;;;;;;;-1.18;67.53;94817.41;106799;1274;22593;-64
2023/03/06 00:35:40;;;;;;;4.80;2.90;;;;;;;-1.22;67.92;94820.30;106698;1274;22577;-63
2023/03/06 00:38:10;;;;;;;5.50;3.10;;;;;;;-1.25;67.68;94820.77;106813;1274;22618;-63
2023/03/06 00:40:39;;;;;;;7.00;3.50;;;;;;;-1.28;67.78;94825.88;106660;1274;22650;-63
2023/03/06 00:43:07;;;;;;;6.00;3.70;;;;;;;-1.35;67.76;94825.28;106721;1274;24213;-63
2023/03/06 00:45:36;;;;;;;8.00;4.20;;;;;;;-1.42;68.12;94831.39;106735;1274;22537;-63
2023/03/06 00:48:05;;;;;;;7.00;3.80;;;;;;;-1.46;68.51;94833.56;106785;1274;25358;-63
2023/03/06 00:50:34;;;;;;;5.40;3.60;;;;;;;-1.47;68.69;94836.14;106753;1274;22520;-63
2023/03/06 00:53:02;;;;;;;6.30;4.00;;;;;;;-1.44;68.63;94831.52;106840;1274;25252;-63
2023/03/06 00:55:32;;;;;;;7.70;4.30;;;;;;;-1.44;69.06;94828.59;106733;1274;25448;-63
2023/03/06 00:58:00;;;;;;;5.00;3.10;;;;;;;-1.47;69.17;94833.38;106812;1274;25296;-63
2023/03/06 01:00:28;;;;;;;8.30;4.70;;;;;;;-1.47;69.42;94838.71;106686;1274;22544;-63
2023/03/06 01:02:57;;;;;;;9.60;5.30;;;;;;;-1.42;69.18;94828.63;106663;1275;22573;-63
2023/03/06 01:05:25;;;;;;;8.70;4.90;;;;;;;-1.35;68.98;94831.82;106754;1274;24076;-63
2023/03/06 01:07:53;;;;;;;6.40;4.20;;;;;;;-1.33;68.93;94832.91;106785;1274;22527;-63
2023/03/06 01:10:22;;;;;;;7.80;4.40;;;;;;;-1.29;69.24;94822.25;106725;1274;22620;-63
2023/03/06 01:12:50;;;;;;;8.70;4.60;;;;;;;-1.21;69.02;94823.39;106750;1274;22537;-63
2023/03/06 01:15:19;;;;;;;12.30;5.90;;;;;;;-1.20;69.62;94820.50;106775;1274;24240;-63
2023/03/06 01:17:52;;;;;;;9.00;4.70;;;;;;;-1.24;69.52;94816.47;106742;1274;22651;-63
2023/03/06 01:20:21;;;;;;;9.90;5.00;;;;;;;-1.28;69.26;94817.11;106770;1274;22451;-63
2023/03/06 01:22:49;;;;;;;7.60;4.20;;;;;;;-1.32;69.53;94818.24;106715;1274;22585;-63
2023/03/06 01:25:17;;;;;;;8.40;4.70;;;;;;;-1.38;69.39;94817.14;106733;1274;25225;-63
2023/03/06 01:27:45;;;;;;;7.00;4.30;;;;;;;-1.38;69.43;94816.09;106723;1274;22534;-64
2023/03/06 01:30:14;;;;;;;7.50;4.50;;;;;;;-1.40;69.42;94821.92;106681;1275;22517;-63
2023/03/06 01:32:42;;;;;;;9.10;4.70;;;;;;;-1.45;69.45;94826.15;106811;1274;25208;-63
2023/03/06 01:35:11;;;;;;;11.50;5.30;;;;;;;-1.52;69.96;94822.08;106648;1274;22719;-64
2023/03/06 01:37:39;;;;;;;9.80;5.20;;;;;;;-1.57;69.98;94818.21;106720;1274;22509;-64
2023/03/06 01:40:10;;;;;;;6.50;4.10;;;;;;;-1.58;70.27;94820.11;106770;1275;22515;-64
2023/03/06 01:42:38;;;;;;;9.00;4.90;;;;;;;-1.61;69.87;94822.64;106765;1274;24348;-64
2023/03/06 01:45:12;;;;;;;9.50;5.10;;;;;;;-1.69;70.58;94823.89;106831;1274;22514;-65
2023/03/06 01:47:41;;;;;;;8.80;4.80;;;;;;;-1.76;70.87;94816.55;106788;1274;22507;-64
2023/03/06 01:50:10;;;;;;;9.00;4.70;;;;;;;-1.76;71.48;94815.17;106675;1274;22626;-64
2023/03/06 01:52:45;;;;;;;10.80;5.20;;;;;;;-1.78;71.22;94810.83;106769;1274;22530;-64
2023/03/06 01:55:18;;;;;;;7.10;4.50;;;;;;;-1.81;71.29;94814.75;106746;1275;22630;-64
2023/03/06 01:57:53;;;;;;;9.80;4.80;;;;;;;-1.88;71.60;94812.05;106814;1274;22517;-64
2023/03/06 02:00:25;;;;;;;8.10;4.50;;;;;;;-1.96;71.77;94811.58;106681;1254;22494;-64
2023/03/06 02:03:07;;;;;;;7.20;4.90;;;;;;;-2.03;72.17;94808.17;106761;1274;22515;-64
2023/03/06 02:05:38;;;;;;;7.90;4.60;;;;;;;-2.02;72.77;94813.02;106784;1274;25208;-64
2023/03/06 02:08:11;;;;;;;8.20;4.60;;;;;;;-2.00;72.51;94812.37;106740;1274;25449;-64
2023/03/06 02:11:09;;;;;;;9.10;4.80;;;;;;;-2.00;72.44;94808.92;106674;1274;22560;-64
2023/03/06 02:13:39;;;;;;;14.90;5.50;;;;;;;-1.99;72.49;94814.45;106777;1274;25383;-64
2023/03/06 02:16:08;;;;;;;11.50;6.00;;;;;;;-1.93;72.32;94811.45;106815;1274;22754;-64
2023/03/06 02:18:39;;;;;;;8.10;5.10;;;;;;;-1.90;72.43;94810.98;106782;1274;25337;-64
2023/03/06 02:21:12;;;;;;;8.40;5.10;;;;;;;-1.90;72.24;94812.02;106805;1274;25303;-64
2023/03/06 02:23:57;;;;;;;7.70;4.50;;;;;;;-1.87;72.82;94809.31;106841;1274;22533;-64
2023/03/06 02:26:27;;;;;;;8.30;4.80;;;;;;;-1.81;72.81;94815.27;106637;1274;25843;-64
2023/03/06 02:28:57;;;;;;;9.50;4.80;;;;;;;-1.77;72.65;94818.27;106929;1263;22590;-64
2023/03/06 02:31:28;;;;;;;9.50;4.60;;;;;;;-1.73;72.65;94816.25;106771;1274;22563;-64
2023/03/06 02:34:07;;;;;;;9.00;5.30;;;;;;;-1.70;72.55;94818.89;106787;1274;22563;-64
2023/03/06 02:36:42;;;;;;;9.80;4.90;;;;;;;-1.71;72.34;94818.36;106681;1261;24018;-64
2023/03/06 02:39:12;;;;;;;11.20;5.80;;;;;;;-1.70;72.38;94822.68;106677;1274;22750;-64
2023/03/06 02:41:40;;;;;;;9.50;4.80;;;;;;;-1.71;72.46;94824.73;106718;1274;25705;-64
2023/03/06 02:44:09;;;;;;;10.40;5.10;;;;;;;-1.68;72.56;94827.19;106782;1274;22514;-64
2023/03/06 02:46:37;;;;;;;12.50;5.20;;;;;;;-1.67;72.27;94827.02;106736;1274;24287;-64
2023/03/06 02:49:05;;;;;;;9.80;4.80;;;;;;;-1.70;72.34;94816.99;106740;1267;24203;-64
2023/03/06 02:51:34;;;;;;;7.50;4.20;;;;;;;-1.79;72.14;94819.95;106770;1274;22634;-64
2023/03/06 02:54:02;;;;;;;7.20;4.40;;;;;;;-1.87;72.56;94827.75;106814;1274;22517;-64
2023/03/06 02:56:30;;;;;;;7.40;4.30;;;;;;;-1.94;72.66;94830.74;106758;1274;22645;-64
2023/03/06 02:58:59;;;;;;;6.70;3.90;;;;;;;-1.99;72.60;94834.96;106790;1274;22643;-64
2023/03/06 03:01:27;;;;;;;9.30;5.10;;;;;;;-2.06;72.49;94836.74;106801;1274;24051;-64
2023/03/06 03:03:56;;;;;;;6.80;4.40;;;;;;;-2.10;72.56;94839.42;106784;1274;23014;-64
2023/03/06 03:06:24;;;;;;;8.40;4.60;;;;;;;-2.12;72.72;94841.45;106647;1274;25260;-64
2023/03/06 03:08:53;;;;;;;13.00;5.70;;;;;;;-2.14;72.87;94841.23;106787;1274;24243;-64
2023/03/06 03:11:22;;;;;;;9.40;5.00;;;;;;;-2.17;73.17;94843.44;106749;1274;24241;-64
2023/03/06 03:13:50;;;;;;;9.90;5.10;;;;;;;-2.23;73.08;94839.89;106744;1274;22643;-64
2023/03/06 03:16:22;;;;;;;8.70;4.50;;;;;;;-2.27;72.65;94840.86;106711;1274;23995;-64
2023/03/06 03:18:51;;;;;;;7.80;4.40;;;;;;;-2.31;72.63;94840.77;106619;1274;22743;-64
2023/03/06 03:21:20;;;;;;;7.10;4.30;;;;;;;-2.37;72.56;94837.73;106807;1274;23748;-64
2023/03/06 03:23:49;;;;;;;7.80;4.60;;;;;;;-2.42;72.59;94840.40;106711;1274;25377;-64
2023/03/06 03:26:20;;;;;;;8.50;4.60;;;;;;;-2.45;72.58;94842.23;106658;1274;22647;-62
2023/03/06 03:28:59;;;;;;;7.30;4.50;;;;;;;-2.48;72.49;94836.14;106714;1274;22651;-64
2023/03/06 03:31:27;;;;;;;8.20;4.70;;;;;;;-2.48;72.35;94834.61;106625;1274;25329;-62
2023/03/06 03:33:56;;;;;;;6.70;4.00;;;;;;;-2.48;72.43;94832.70;106660;1274;22536;-61
2023/03/06 03:36:26;;;;;;;8.80;4.20;;;;;;;-2.51;72.70;94831.45;106758;1274;25442;-64
2023/03/06 03:38:56;;;;;;;8.70;4.80;;;;;;;-2.57;72.48;94834.77;106796;1274;22640;-64
2023/03/06 03:41:24;;;;;;;9.10;4.80;;;;;;;-2.61;72.32;94838.48;106851;1274;24317;-64
2023/03/06 03:43:53;;;;;;;7.50;4.70;;;;;;;-2.62;72.23;94839.87;106761;1274;22543;-64
2023/03/06 03:46:24;;;;;;;8.00;4.40;;;;;;;-2.62;72.10;94841.59;106734;1274;23207;-64
2023/03/06 03:48:53;;;;;;;5.90;3.90;;;;;;;-2.66;72.37;94841.14;106763;1274;22521;-62
2023/03/06 03:51:22;;;;;;;7.80;3.90;;;;;;;-2.73;72.38;94843.42;106733;1274;24053;-62
2023/03/06 03:53:55;;;;;;;7.10;3.70;;;;;;;-2.78;72.37;94847.97;106699;1274;25246;-62
2023/03/06 03:56:25;;;;;;;6.80;3.90;;;;;;;-2.83;72.82;94840.13;106709;1274;22745;-62
2023/03/06 03:59:09;;;;;;;10.70;4.10;;;;;;;-2.91;73.18;94847.20;106755;1274;24244;-62
2023/03/06 04:01:44;;;;;;;6.50;4.00;;;;;;;-2.93;73.08;94846.61;106771;1274;25281;-62
2023/03/06 04:04:13;;;;;;;9.60;4.90;;;;;;;-2.94;72.76;94847.81;106769;1270;25914;-62
2023/03/06 04:06:42;;;;;;;7.10;3.80;;;;;;;-2.94;72.63;94850.04;106768;1274;22511;-62
2023/03/06 04:09:10;;;;;;;8.00;3.70;;;;;;;-2.94;72.81;94843.50;106750;1274;24197;-63
2023/03/06 04:11:39;;;;;;;5.70;3.20;;;;;;;-2.94;73.02;94840.92;106581;1274;22526;-62
2023/03/06 04:14:08;;;;;;;6.10;3.80;;;;;;;-2.97;72.87;94842.93;106773;1274;24241;-62
2023/03/06 04:16:37;;;;;;;7.40;4.30;;;;;;;-2.97;73.32;94845.86;106833;1274;25487;-63
2023/03/06 04:19:06;;;;;;;11.40;4.00;;;;;;;-2.96;73.53;94841.89;106612;1274;22522;-62
2023/03/06 04:21:34;;;;;;;7.00;4.20;;;;;;;-3.01;73.26;94841.63;106811;1274;22547;-62
2023/03/06 04:24:03;;;;;;;6.30;3.70;;;;;;;-3.06;73.24;94845.67;106733;1274;24253;-63
2023/03/06 04:26:31;;;;;;;6.10;3.40;;;;;;;-3.07;73.17;94843.08;106717;1274;25252;-62
2023/03/06 04:29:00;;;;;;;8.30;3.40;;;;;;;-3.08;73.09;94841.17;106753;1274;24199;-62
2023/03/06 04:31:29;;;;;;;8.20;3.50;;;;;;;-3.09;72.93;94841.14;106734;1274;22571;-62
2023/03/06 04:33:57;;;;;;;8.20;3.50;;;;;;;-3.08;73.03;94839.78;106924;1274;22526;-62
2023/03/06 04:36:31;;;;;;;7.20;3.40;;;;;;;-3.07;73.08;94844.63;106772;1274;25304;-62
2023/03/06 04:39:04;;;;;;;6.70;3.30;;;;;;;-3.06;73.01;94841.71;106705;1274;22529;-63
2023/03/06 04:41:33;;;;;;;11.00;5.60;;;;;;;-3.08;73.39;94838.05;106750;1274;23739;-62
2023/03/06 04:44:02;;;;;;;7.00;3.50;;;;;;;-3.07;73.38;94837.23;106724;1274;23425;-62
2023/03/06 04:46:30;;;;;;;8.80;4.30;;;;;;;-3.06;73.22;94841.20;106733;1274;23133;-63
2023/03/06 04:48:58;;;;;;;7.80;3.40;;;;;;;-3.00;73.30;94837.52;106745;1274;23922;-62
2023/03/06 04:51:27;;;;;;;11.30;3.70;;;;;;;-2.92;73.53;94840.63;106790;1274;22517;-62
2023/03/06 04:53:55;;;;;;;6.10;2.90;;;;;;;-2.85;73.57;94843.00;106717;1274;22833;-62
2023/03/06 04:56:23;;;;;;;5.70;2.90;;;;;;;-2.82;73.05;94837.05;106678;1274;23040;-62
2023/03/06 04:58:51;;;;;;;5.10;2.90;;;;;;;-2.72;73.28;94837.06;106783;1274;22525;-62
2023/03/06 05:01:19;;;;;;;4.60;2.90;;;;;;;-2.67;72.16;94834.08;106760;1261;24228;-62
2023/03/06 05:03:48;;;;;;;14.50;5.70;;;;;;;-2.55;72.35;94834.14;106743;1257;22518;-62
2023/03/06 05:06:16;;;;;;;7.30;3.20;;;;;;;-2.45;72.49;94842.40;106733;1274;22807;-62
2023/03/06 05:08:45;;;;;;;4.60;2.60;;;;;;;-2.39;72.06;94843.20;106706;1274;25580;-63
2023/03/06 05:11:13;;;;;;;5.10;2.30;;;;;;;-2.40;71.94;94845.95;106790;1274;22566;-62
2023/03/06 05:13:41;;;;;;;9.80;4.90;;;;;;;-2.35;71.75;94849.63;106817;1274;22787;-62
2023/03/06 05:16:10;;;;;;;4.70;3.00;;;;;;;-2.29;71.54;94846.84;106858;1274;24370;-62
2023/03/06 05:18:38;;;;;;;5.40;2.70;;;;;;;-2.23;72.00;94849.38;106757;1274;22558;-62
2023/03/06 05:21:06;;;;;;;4.60;2.30;;;;;;;-2.16;71.80;94848.45;106734;1274;23884;-63
2023/03/06 05:23:37;;;;;;;5.30;3.30;;;;;;;-2.15;71.32;94857.77;106712;1274;25503;-62
2023/03/06 05:26:11;;;;;;;4.50;2.40;;;;;;;-2.16;71.06;94851.73;106722;1274;24241;-62
2023/03/06 05:28:40;;;;;;;4.30;2.40;;;;;;;-2.20;70.72;94856.13;106726;1274;22643;-62
2023/03/06 05:31:08;;;;;;;4.90;2.80;;;;;;;-2.25;70.56;94860.69;106756;1274;22521;-63
2023/03/06 05:33:36;;;;;;;6.80;2.60;;;;;;;-2.28;70.73;94861.16;106707;1274;24324;-62
2023/03/06 05:36:07;;;;;;;4.30;2.40;;;;;;;-2.28;70.97;94862.18;106714;1274;24217;-62
2023/03/06 05:38:35;;;;;;;4.90;3.10;;;;;;;-2.32;71.25;94866.94;106773;1274;22989;-63
2023/03/06 05:41:04;;;;;;;13.20;6.70;;;;;;;-2.31;71.17;94865.40;106601;1263;22520;-62
2023/03/06 05:43:32;;;;;;;6.80;4.30;;;;;;;-2.27;70.73;94864.80;106825;1274;22593;-63
2023/03/06 05:46:02;;;;;;;8.90;4.50;;;;;;;-2.17;69.75;94864.45;106759;1274;25460;-62
2023/03/06 05:48:31;;;;;;;8.20;4.50;;;;;;;-2.10;69.97;94868.73;106741;1274;22535;-62
2023/03/06 05:51:01;;;;;;;7.30;3.90;;;;;;;-2.04;69.79;94867.80;106755;1274;25333;-62
2023/03/06 05:53:30;;;;;;;6.40;3.80;;;;;;;-2.00;69.83;94868.73;106788;1274;24521;-63
2023/03/06 05:56:05;;;;;;;8.50;5.30;;;;;;;-1.98;70.28;94872.21;106701;1274;22570;-63
2023/03/06 05:58:33;;;;;;;8.10;5.10;;;;;;;-1.96;69.96;94869.84;106721;1274;24252;-63
2023/03/06 06:01:10;;;;;;;11.70;5.40;;;;;;;-1.92;70.03;94871.96;106816;1251;25482;-63
2023/03/06 06:03:39;;;;;;;11.00;5.30;;;;;;;-1.86;69.85;94874.65;106705;1274;23900;-62
2023/03/06 06:06:10;;;;;;;9.10;4.70;;;;;;;-1.81;69.81;94874.57;106724;1274;24246;-63
2023/03/06 06:08:38;;;;;;;9.10;5.00;;;;;;;-1.73;69.60;94868.49;106836;1274;24327;-63
2023/03/06 06:11:08;;;;;;;8.60;4.80;;;;;;;-1.67;69.63;94871.86;106783;1274;25452;-65
2023/03/06 06:13:37;;;;;;;9.60;5.00;;;;;;;-1.60;69.70;94872.84;107539;1274;25217;-65
2023/03/06 06:16:17;;;;;;;11.30;5.80;;;;;;;-1.49;69.39;94874.57;106656;1274;22644;-65
2023/03/06 06:18:45;;;;;;;11.10;6.40;;;;;;;-1.36;69.53;94874.42;106627;1257;22633;-62
2023/03/06 06:21:14;;;;;;;11.20;6.10;;;;;;;-1.25;69.29;94873.21;106610;1274;22533;-63
2023/03/06 06:23:42;;;;;;;12.70;5.60;;;;;;;-1.16;69.04;94869.21;106833;1274;22640;-65
2023/03/06 06:26:11;;;;;;;14.50;5.80;;;;;;;-1.07;68.81;94867.77;107085;1274;25459;-65
2023/03/06 06:28:39;;;;;;;9.70;5.90;;;;;;;-0.98;68.81;94869.45;106776;1274;22512;-65
2023/03/06 06:31:10;;;;;;;13.30;5.90;;;;;;;-0.89;68.43;94872.87;106614;1274;22514;-65
2023/03/06 06:33:40;;;;;;;9.60;5.80;;;;;;;-0.79;68.40;94871.27;106763;1274;24240;-64
2023/03/06 06:36:19;;;;;;;10.70;5.40;;;;;;;-0.67;68.24;94868.14;106722;1274;25332;-66
2023/03/06 06:38:48;;;;;;;10.90;5.50;;;;;;;-0.54;67.85;94870.90;106837;1274;22647;-64
2023/03/06 06:41:16;;;;;;;11.80;6.10;;;;;;;-0.43;67.12;94866.70;106722;1274;22514;-64
2023/03/06 06:44:06;;;;;;;11.70;6.20;;;;;;;-0.32;66.84;94864.77;106646;1274;22557;-66
2023/03/06 06:46:36;;;;;;;15.30;8.30;;;;;;;-0.20;67.12;94862.98;108113;1274;23676;-63
2023/03/06 06:49:26;;;;;;;16.20;8.10;;;;;;;-0.11;65.60;94864.29;106625;1274;22526;-64
2023/03/06 06:51:54;;;;;;;30.70;14.30;;;;;;;-0.04;65.39;94865.40;106944;1274;25390;-64
2023/03/06 06:54:23;;;;;;;30.00;13.80;;;;;;;0.05;65.52;94861.69;106800;1274;25513;-65
2023/03/06 06:56:52;;;;;;;28.00;12.10;;;;;;;0.13;64.89;94863.84;106800;1274;22594;-66
2023/03/06 06:59:22;;;;;;;28.90;12.90;;;;;;;0.24;64.83;94860.13;106786;1274;22532;-65
2023/03/06 07:01:51;;;;;;;41.50;17.30;;;;;;;0.33;64.39;94864.19;106600;1274;24252;-65
2023/03/06 07:04:20;;;;;;;24.80;11.80;;;;;;;0.42;63.53;94867.91;106757;1274;25265;-64
2023/03/06 07:06:48;;;;;;;11.60;6.10;;;;;;;0.52;63.34;94866.27;106683;1274;24368;-64
2023/03/06 07:09:16;;;;;;;11.00;6.10;;;;;;;0.61;62.85;94864.77;106610;1274;23703;-64
2023/03/06 07:11:45;;;;;;;10.50;6.00;;;;;;;0.72;62.78;94865.72;106482;1274;24227;-65
2023/03/06 07:14:13;;;;;;;8.20;4.50;;;;;;;0.82;61.49;94861.98;106572;1274;24278;-64
2023/03/06 07:16:41;;;;;;;6.70;4.00;;;;;;;0.93;61.87;94865.16;106819;1274;22664;-65
2023/03/06 07:19:09;;;;;;;8.40;5.30;;;;;;;1.03;60.81;94867.84;106567;1274;22529;-67
2023/03/06 07:21:37;;;;;;;7.60;4.20;;;;;;;1.16;60.93;94866.70;106541;1274;24452;-66
2023/03/06 07:24:06;;;;;;;8.30;4.30;;;;;;;1.28;60.39;94870.07;106500;1274;24889;-65
2023/03/06 07:26:34;;;;;;;4.50;3.40;;;;;;;1.41;59.46;94871.86;106588;1274;22841;-66
2023/03/06 07:29:03;;;;;;;5.30;3.50;;;;;;;1.54;59.89;94872.45;106600;1274;24202;-68
2023/03/06 07:31:31;;;;;;;4.90;3.10;;;;;;;1.65;58.04;94869.38;106563;1274;27390;-67
2023/03/06 07:34:00;;;;;;;6.30;3.20;;;;;;;1.75;58.44;94872.70;106678;1269;22652;-65
2023/03/06 07:36:33;;;;;;;6.40;3.20;;;;;;;1.86;59.18;94870.48;106584;1266;22621;-67
2023/03/06 07:39:01;;;;;;;4.90;2.80;;;;;;;1.97;56.73;94866.70;106655;1275;24298;-64
2023/03/06 07:41:29;;;;;;;4.50;3.40;;;;;;;2.07;55.95;94863.77;106404;1275;22517;-64
2023/03/06 07:43:58;;;;;;;162.80;58.30;;;;;;;2.17;56.82;94867.96;106018;1266;625347;-64
2023/03/06 07:46:26;;;;;;;7.60;4.30;;;;;;;2.29;55.96;94869.72;106685;1275;23142;-64
2023/03/06 07:48:57;;;;;;;8.80;4.10;;;;;;;2.37;54.89;94867.64;106525;1275;22615;-65
2023/03/06 07:51:25;;;;;;;8.10;5.10;;;;;;;2.48;55.16;94871.48;106466;1275;24538;-66
2023/03/06 07:53:53;;;;;;;4.20;2.90;;;;;;;2.50;53.08;94874.08;106475;1272;25418;-67
2023/03/06 07:56:21;;;;;;;6.10;2.80;;;;;;;2.47;52.54;94875.45;106555;1274;24044;-68
2023/03/06 07:58:49;;;;;;;3.80;2.60;;;;;;;2.54;51.53;94879.64;106463;1274;22531;-66
2023/03/06 08:01:19;;;;;;;8.40;5.60;;;;;;;2.62;52.73;94878.77;106550;1274;23008;-67
2023/03/06 08:03:48;;;;;;;4.70;2.80;;;;;;;2.70;51.60;94882.42;106964;1251;22617;-67
2023/03/06 08:06:20;;;;;;;5.20;2.50;;;;;;;2.74;51.24;94884.16;106575;1274;24387;-67
2023/03/06 08:08:51;;;;;;;5.70;2.90;;;;;;;2.85;51.57;94885.02;107416;1274;22607;-66
2023/03/06 08:11:21;;;;;;;5.20;3.50;;;;;;;2.92;50.67;94886.92;106624;1274;24199;-71
2023/03/06 08:13:51;;;;;;;3.60;2.40;;;;;;;2.91;49.82;94883.11;106706;1269;22524;-74
2023/03/06 08:16:22;;;;;;;5.30;3.10;;;;;;;2.94;49.11;94883.98;106624;1274;25258;-70
2023/03/06 08:18:50;;;;;;;6.60;4.40;;;;;;;3.07;48.85;94886.21;106997;1274;25213;-69
2023/03/06 08:21:22;;;;;;;35.60;17.80;;;;;;;3.17;49.87;94887.77;106698;1274;24317;-69
2023/03/06 08:23:50;;;;;;;21.90;12.40;;;;;;;3.28;49.05;94888.10;106792;1274;22513;-68
2023/03/06 08:26:22;;;;;;;7.10;3.90;;;;;;;3.32;47.74;94890.88;106465;1274;24247;-67
2023/03/06 08:28:52;;;;;;;5.00;2.90;;;;;;;3.33;46.75;94893.48;106453;1274;22765;-67
2023/03/06 08:31:32;;;;;;;5.00;2.70;;;;;;;3.29;46.28;94895.75;106605;1274;22977;-69
2023/03/06 08:34:07;;;;;;;11.60;5.80;;;;;;;3.19;46.39;94898.02;106554;1274;24258;-64
2023/03/06 08:36:36;;;;;;;8.40;5.40;;;;;;;3.25;47.08;94898.35;106679;1274;22576;-65
2023/03/06 08:39:05;;;;;;;23.40;10.50;;;;;;;3.33;47.35;94900.95;106808;1274;22528;-65
2023/03/06 08:41:34;;;;;;;5.10;2.90;;;;;;;3.47;47.47;94900.76;106788;1274;25317;-64
2023/03/06 08:44:04;;;;;;;5.00;3.50;;;;;;;3.45;46.35;94897.45;106872;1274;25201;-63
2023/03/06 08:46:33;;;;;;;5.70;3.20;;;;;;;3.46;46.53;94905.63;106881;1274;24198;-63
2023/03/06 08:49:01;;;;;;;3.10;2.00;;;;;;;3.38;45.70;94908.23;110486;1274;22191;-61
2023/03/06 08:51:30;;;;;;;5.90;3.90;;;;;;;3.40;46.07;94907.38;110555;1274;22281;-62
2023/03/06 08:53:58;;;;;;;5.30;2.90;;;;;;;3.45;45.86;94909.45;110557;1274;22323;-63
2023/03/06 08:56:31;;;;;;;4.30;2.70;;;;;;;3.55;46.67;94909.27;109491;1274;23473;-63
2023/03/06 08:59:02;;;;;;;14.10;8.50;;;;;;;3.66;46.08;94907.48;106615;1274;24229;-65
2023/03/06 09:01:35;;;;;;;5.60;3.70;;;;;;;3.69;45.74;94908.00;106797;1274;25777;-63
2023/03/06 09:04:06;;;;;;;9.50;5.80;;;;;;;3.64;45.24;94911.84;106736;1274;22523;-64
2023/03/06 09:06:38;;;;;;;12.60;8.10;;;;;;;3.63;45.86;94918.10;106538;1274;22635;-66
2023/03/06 09:09:07;;;;;;;21.60;12.70;;;;;;;3.66;46.35;94915.14;106501;1274;23257;-64
2023/03/06 09:11:35;;;;;;;13.30;7.90;;;;;;;3.78;46.14;94919.44;106500;1269;24409;-62
2023/03/06 09:14:04;;;;;;;4.10;2.70;;;;;;;3.85;46.05;94914.73;106525;1270;22552;-62
2023/03/06 09:16:32;;;;;;;3.80;2.30;;;;;;;3.98;46.44;94911.19;106991;1273;23037;-62
2023/03/06 09:19:01;;;;;;;6.20;4.30;;;;;;;4.04;45.93;94907.17;106816;1269;25469;-62
2023/03/06 09:21:29;;;;;;;5.40;3.10;;;;;;;4.03;45.55;94910.48;106628;1267;25497;-62
2023/03/06 09:23:58;;;;;;;4.90;3.30;;;;;;;4.07;45.38;94914.12;106668;1259;22531;-64
2023/03/06 09:26:27;;;;;;;8.90;3.80;;;;;;;4.08;44.70;94920.20;106355;1269;25444;-63
2023/03/06 09:29:12;;;;;;;4.30;2.40;;;;;;;4.07;44.34;94921.08;107363;1267;24330;-64
2023/03/06 09:31:40;;;;;;;10.30;4.80;;;;;;;4.09;44.23;94916.71;110516;1272;22300;-62
2023/03/06 09:34:08;;;;;;;9.90;4.80;;;;;;;4.10;45.34;94916.86;106958;1267;25226;-65
2023/03/06 09:36:36;;;;;;;7.00;4.30;;;;;;;4.20;45.30;94921.88;106791;1273;22625;-66
2023/03/06 09:39:23;;;;;;;5.60;2.70;;;;;;;4.31;44.98;94925.13;106549;1275;25347;-66
2023/03/06 09:41:52;;;;;;;2.60;1.40;;;;;;;4.38;44.50;94932.76;106328;1275;22639;-64
2023/03/06 09:44:27;;;;;;;4.20;2.80;;;;;;;4.38;44.05;94921.80;106596;1275;22637;-63
2023/03/06 09:47:19;;;;;;;6.00;2.70;;;;;;;4.48;44.39;94914.77;106721;1270;24231;-65
2023/03/06 09:50:12;;;;;;;4.00;2.80;;;;;;;4.59;43.08;94907.02;106397;1270;24237;-64
2023/03/06 09:53:10;;;;;;;5.20;2.90;;;;;;;4.62;42.99;94909.29;106805;1267;22523;-64
2023/03/06 09:55:39;;;;;;;5.00;2.80;;;;;;;4.68;43.63;94908.89;106643;1267;22525;-65
2023/03/06 09:58:21;;;;;;;5.60;3.70;;;;;;;4.84;43.59;94911.21;106449;1272;22524;-63
2023/03/06 10:00:59;;;;;;;7.80;3.60;;;;;;;5.08;43.89;94913.11;106664;1270;22544;-61
2023/03/06 10:03:44;;;;;;;5.20;3.10;;;;;;;5.38;43.33;94909.52;106546;1272;24419;-62
2023/03/06 10:06:29;;;;;;;6.20;3.90;;;;;;;5.42;41.82;94903.91;106602;1275;24255;-63
2023/03/06 10:09:00;;;;;;;7.90;3.50;;;;;;;5.47;42.84;94911.54;106524;1274;22508;-64
2023/03/06 10:11:38;;;;;;;5.00;2.70;;;;;;;5.57;41.88;94911.29;106526;1274;23151;-64
2023/03/06 10:14:33;;;;;;;5.40;3.00;;;;;;;5.64;42.47;94908.04;108090;1275;24240;-64
2023/03/06 10:17:03;;;;;;;5.00;3.10;;;;;;;5.71;42.49;94908.67;106814;1275;22734;-64
2023/03/06 10:19:38;;;;;;;8.50;3.40;;;;;;;6.02;42.72;94907.48;106602;1275;24040;-63
2023/03/06 10:22:26;;;;;;;6.70;4.10;;;;;;;6.20;41.62;94908.30;106535;1275;22509;-63
2023/03/06 10:24:59;;;;;;;8.50;4.10;;;;;;;6.10;41.12;94900.92;106665;1275;24030;-64
2023/03/06 10:27:30;;;;;;;;;;;;;;;6.13;40.77;94904.56;106741;1275;22507;-64
2023/03/06 10:30:17;;;;;;;7.30;5.60;;;;;;;6.08;41.06;94907.06;106636;1275;23147;-64
2023/03/06 10:32:57;;;;;;;6.40;2.90;;;;;;;6.11;40.39;94909.29;106663;1275;22517;-64
2023/03/06 10:35:55;;;;;;;8.30;3.60;;;;;;;6.21;40.63;94901.84;106665;1275;25341;-64
2023/03/06 10:38:37;;;;;;;6.10;3.40;;;;;;;6.33;40.47;94889.29;106534;1275;22520;-64
2023/03/06 10:41:11;;;;;;;7.00;3.30;;;;;;;6.32;40.23;94887.55;110013;1275;22536;-62
2023/03/06 10:43:59;;;;;;;16.80;13.80;;;;;;;6.29;40.09;94880.95;106549;1275;25386;-64
2023/03/06 10:46:33;;;;;;;5.30;3.30;;;;;;;6.15;40.55;94868.73;106554;1275;24227;-63
2023/03/06 10:49:30;;;;;;;6.30;3.60;;;;;;;6.11;40.37;94872.27;106658;1275;23021;-64
2023/03/06 10:52:02;;;;;;;5.70;3.50;;;;;;;5.93;40.32;94863.23;106632;1275;25469;-64
2023/03/06 10:54:34;;;;;;;6.70;4.50;;;;;;;5.90;40.86;94851.41;106646;1271;22567;-64
2023/03/06 10:57:24;;;;;;;7.90;5.00;;;;;;;6.24;41.57;94842.75;106607;1275;25383;-64
2023/03/06 10:59:52;;;;;;;7.80;5.40;;;;;;;6.90;40.92;94832.84;106597;1275;22643;-64
2023/03/06 11:02:30;;;;;;;7.10;4.50;;;;;;;7.60;39.93;94828.44;106657;1272;22511;-64
2023/03/06 11:05:00;;;;;;;7.10;4.10;;;;;;;8.10;38.43;94825.69;106660;1275;24040;-64
2023/03/06 11:07:32;;;;;;;6.70;4.00;;;;;;;8.83;38.56;94826.70;106658;1275;22523;-64
2023/03/06 11:10:16;;;;;;;7.90;4.50;;;;;;;9.34;37.40;94822.41;106679;1275;24220;-64
2023/03/06 11:13:20;;;;;;;5.80;4.20;;;;;;;9.75;35.62;94823.60;106630;1275;22512;-64
2023/03/06 11:16:06;;;;;;;8.10;4.90;;;;;;;10.16;35.12;94820.67;106576;1275;22639;-62
2023/03/06 11:18:41;;;;;;;7.20;4.90;;;;;;;10.45;33.31;94825.48;106625;1275;24500;-63
2023/03/06 11:21:25;;;;;;;6.60;4.50;;;;;;;10.40;33.48;94825.27;106699;1275;24420;-62
2023/03/06 11:24:01;;;;;;;7.10;4.30;;;;;;;10.71;33.61;94814.98;106716;1275;24255;-62
2023/03/06 11:26:43;;;;;;;8.60;4.70;;;;;;;10.57;33.02;94815.62;106586;1275;24202;-62
2023/03/06 11:29:24;;;;;;;8.40;4.80;;;;;;;10.52;33.63;94813.13;106718;1263;24294;-62
2023/03/06 11:32:05;;;;;;;10.20;6.30;;;;;;;10.12;33.18;94815.86;106698;1260;24285;-64
2023/03/06 11:34:51;;;;;;;9.50;5.50;;;;;;;10.08;34.78;94809.48;106680;1275;23825;-64
2023/03/06 11:37:32;;;;;;;10.30;5.60;;;;;;;10.51;34.42;94795.41;106681;1275;22654;-64
2023/03/06 11:40:09;;;;;;;8.50;4.90;;;;;;;10.66;33.23;94791.60;106631;1275;22523;-64
2023/03/06 11:42:44;;;;;;;8.20;4.70;;;;;;;11.01;33.43;94774.78;106638;1275;22514;-64
2023/03/06 11:45:27;;;;;;;9.20;4.80;;;;;;;11.52;32.66;94770.55;106754;1275;22611;-64
2023/03/06 11:48:19;;;;;;;8.80;5.10;;;;;;;12.03;31.98;94762.91;106685;1275;22516;-64